Time;durP1;ratioP1;P1;durP2;ratioP2;P2;SDS_P1;SDS_P2;PMS_P1;PMS_P2;Temp;Humidity;BMP_temperature;BMP_pressure;BME280_temperature;BME280_humidity;BME280_pressure;Samples;Min_cycle;Max_cycle;Signal;HPM_P1;HPM_P2
2021/12/28 00:01:14;;;;;;;241.18;73.70;;;;;;;4.41;86.29;92784.75;5111523;28;20103;-52
2021/12/28 00:03:42;;;;;;;174.38;51.78;;;;;;;4.38;85.83;92780.31;5111554;28;20023;-50
2021/12/28 00:06:08;;;;;;;198.10;59.13;;;;;;;4.56;85.87;92806.09;5111479;28;20027;-50
2021/12/28 00:08:34;;;;;;;209.63;58.55;;;;;;;4.58;84.60;92793.38;5111147;28;20061;-52
2021/12/28 00:10:59;;;;;;;163.98;55.15;;;;;;;4.59;84.26;92805.03;5110769;27;20027;-54
2021/12/28 00:13:26;;;;;;;155.43;51.83;;;;;;;4.38;85.24;92791.25;5118181;27;20499;-52
2021/12/28 00:18:20;;;;;;;118.27;46.53;;;;;;;4.50;85.13;92800.72;5120255;27;20031;-50
2021/12/28 00:20:49;;;;;;;186.95;49.45;;;;;;;4.45;84.90;92800.81;5122108;27;20114;-52
2021/12/28 00:23:18;;;;;;;117.75;44.40;;;;;;;4.51;84.74;92804.94;5120811;27;20019;-54
2021/12/28 00:25:44;;;;;;;122.88;48.92;;;;;;;4.50;84.95;92803.44;5120017;27;20016;-49
2021/12/28 00:28:10;;;;;;;125.07;45.60;;;;;;;4.46;86.02;92799.56;5116951;27;20118;-50
2021/12/28 00:30:35;;;;;;;112.18;42.55;;;;;;;4.65;85.93;92808.41;5116784;27;20118;-50
2021/12/28 00:33:01;;;;;;;157.77;44.42;;;;;;;4.77;85.08;92811.66;5110709;28;20028;-50
2021/12/28 00:35:29;;;;;;;131.65;41.67;;;;;;;4.79;84.42;92806.38;5110526;28;20027;-51
2021/12/28 00:37:55;;;;;;;134.50;45.60;;;;;;;4.75;83.93;92803.97;5110730;28;20035;-51
2021/12/28 00:40:21;;;;;;;127.57;44.65;;;;;;;4.70;83.52;92801.38;5110677;28;20028;-50
2021/12/28 00:42:47;;;;;;;96.35;33.85;;;;;;;4.32;83.76;92807.00;5110700;28;20023;-54
2021/12/28 00:45:13;;;;;;;101.43;27.58;;;;;;;3.99;85.76;92782.25;5110438;28;20023;-50
2021/12/28 00:47:39;;;;;;;99.78;28.92;;;;;;;4.32;86.23;92804.28;5110534;28;20557;-52
2021/12/28 00:50:05;;;;;;;73.55;29.30;;;;;;;4.40;85.35;92798.91;5110470;28;20069;-52
2021/12/28 00:52:31;;;;;;;76.82;25.10;;;;;;;4.35;85.63;92791.56;5109944;28;20044;-50
2021/12/28 00:54:57;;;;;;;50.70;21.80;;;;;;;4.04;87.05;92795.09;5110487;28;20477;-52
2021/12/28 00:57:23;;;;;;;42.47;19.83;;;;;;;4.15;87.04;92790.19;5109997;28;20011;-58
2021/12/28 00:59:48;;;;;;;106.47;26.25;;;;;;;4.23;86.85;92790.28;5110750;28;20031;-58
2021/12/28 01:02:14;;;;;;;45.28;21.73;;;;;;;4.29;85.43;92783.47;5110714;28;20103;-58
2021/12/28 01:04:40;;;;;;;72.47;29.27;;;;;;;4.32;85.04;92789.88;5110434;28;20019;-58
2021/12/28 01:07:05;;;;;;;84.43;30.48;;;;;;;3.86;85.20;92766.59;5110259;28;20035;-58
2021/12/28 01:09:31;;;;;;;70.72;29.75;;;;;;;3.98;86.33;92781.53;5110298;28;20023;-58
2021/12/28 01:12:02;;;;;;;70.55;29.08;;;;;;;3.99;86.11;92765.88;5110720;28;20024;-58
2021/12/28 01:14:28;;;;;;;96.63;34.33;;;;;;;4.27;85.50;92780.53;5110573;28;20043;-58
2021/12/28 01:16:54;;;;;;;126.45;44.33;;;;;;;4.19;85.94;92774.22;5110284;28;20496;-58
2021/12/28 01:19:20;;;;;;;107.65;46.03;;;;;;;4.15;86.90;92782.00;5110572;28;20099;-57
2021/12/28 01:21:45;;;;;;;155.30;44.08;;;;;;;4.11;85.51;92764.44;5110523;28;20050;-58
2021/12/28 01:24:11;;;;;;;128.52;40.55;;;;;;;4.27;85.10;92783.25;5109924;28;20027;-58
2021/12/28 01:26:37;;;;;;;96.57;37.75;;;;;;;4.23;85.11;92785.56;5109157;28;20479;-58
2021/12/28 01:29:03;;;;;;;138.63;43.17;;;;;;;4.31;84.93;92772.75;5110478;28;20030;-58
2021/12/28 01:31:29;;;;;;;123.30;45.72;;;;;;;3.84;86.24;92766.38;5110288;28;20031;-58
2021/12/28 01:33:54;;;;;;;116.95;40.15;;;;;;;3.94;87.47;92772.91;5109971;28;20481;-58
2021/12/28 01:36:20;;;;;;;86.45;41.25;;;;;;;4.09;86.57;92764.97;5110379;28;20030;-59
2021/12/28 01:38:46;;;;;;;81.78;40.78;;;;;;;4.08;86.09;92770.94;5110053;28;20077;-59
2021/12/28 01:41:12;;;;;;;100.38;42.08;;;;;;;4.20;85.78;92780.41;5110017;28;20019;-59
2021/12/28 01:43:39;;;;;;;77.43;36.70;;;;;;;4.23;85.57;92782.81;5110359;28;20026;-59
2021/12/28 01:46:05;;;;;;;97.50;41.15;;;;;;;3.91;85.08;92721.31;5110337;28;20461;-59
2021/12/28 01:48:39;;;;;;;126.53;43.63;;;;;;;4.26;85.07;92770.88;5110344;28;20095;-55
2021/12/28 01:51:14;;;;;;;75.07;35.78;;;;;;;4.47;84.39;92776.44;5109843;28;20046;-49
2021/12/28 01:53:41;;;;;;;56.00;33.55;;;;;;;4.45;84.59;92790.63;5110218;28;20039;-48
2021/12/28 01:56:10;;;;;;;59.55;30.08;;;;;;;4.30;84.73;92795.88;5110183;28;20077;-50
2021/12/28 01:58:37;;;;;;;50.63;25.80;;;;;;;4.41;84.34;92792.94;5109957;28;20024;-49
2021/12/28 02:01:04;;;;;;;59.05;28.20;;;;;;;4.38;84.36;92791.25;5111414;28;20551;-57
2021/12/28 02:03:31;;;;;;;55.38;29.38;;;;;;;4.39;85.13;92797.47;5132220;27;20407;-56
2021/12/28 02:05:57;;;;;;;47.35;27.33;;;;;;;4.21;85.11;92788.09;5134068;27;20019;-51
2021/12/28 02:08:23;;;;;;;44.65;25.95;;;;;;;3.69;85.80;92769.59;5134089;27;20026;-51
2021/12/28 02:10:51;;;;;;;50.25;24.48;;;;;;;4.14;86.22;92791.44;5134050;27;20109;-49
2021/12/28 02:13:17;;;;;;;40.47;23.95;;;;;;;4.15;85.86;92779.25;5134079;27;20023;-49
2021/12/28 02:15:43;;;;;;;43.88;25.92;;;;;;;4.29;85.43;92786.19;5133868;27;20575;-49
2021/12/28 02:18:11;;;;;;;46.58;26.25;;;;;;;4.38;84.36;92788.53;5133750;27;20023;-51
2021/12/28 02:20:37;;;;;;;63.28;27.52;;;;;;;4.23;84.11;92771.16;5133292;27;20027;-49
2021/12/28 02:23:04;;;;;;;71.07;34.80;;;;;;;4.22;84.79;92791.56;5133895;27;20027;-49
2021/12/28 02:25:31;;;;;;;157.77;64.10;;;;;;;4.11;85.53;92789.75;5134069;27;20019;-51
2021/12/28 02:27:57;;;;;;;142.32;59.20;;;;;;;4.17;85.53;92784.19;5133917;27;20412;-49
2021/12/28 02:30:23;;;;;;;139.38;51.75;;;;;;;4.03;85.47;92777.97;5124838;27;20080;-51
2021/12/28 02:32:50;;;;;;;166.65;49.20;;;;;;;4.08;85.76;92785.31;5113221;28;20023;-50
2021/12/28 02:35:18;;;;;;;117.15;34.83;;;;;;;4.28;85.05;92776.53;5113015;28;20055;-50
2021/12/28 02:37:44;;;;;;;90.87;38.40;;;;;;;4.34;84.43;92777.16;5113288;28;20408;-54
2021/12/28 02:40:13;;;;;;;91.13;37.92;;;;;;;4.26;84.38;92773.59;5112934;28;20024;-49
2021/12/28 02:42:39;;;;;;;89.07;39.85;;;;;;;3.86;84.36;92772.03;5113211;28;20047;-49
2021/12/28 02:45:09;;;;;;;85.05;39.88;;;;;;;3.63;86.35;92774.41;5112701;28;20066;-50
2021/12/28 02:47:36;;;;;;;96.18;47.92;;;;;;;3.59;86.38;92776.72;5113061;28;20020;-53
2021/12/28 02:50:04;;;;;;;82.15;44.33;;;;;;;3.30;87.92;92766.72;5113049;28;20425;-53
2021/12/28 02:52:39;;;;;;;91.78;49.33;;;;;;;3.31;89.09;92767.47;5112600;28;20051;-50
2021/12/28 02:55:07;;;;;;;84.75;47.00;;;;;;;3.42;88.73;92776.19;5112521;28;20016;-51
2021/12/28 02:57:33;;;;;;;98.73;40.50;;;;;;;3.19;88.21;92782.50;5112294;28;20046;-53
2021/12/28 02:59:58;;;;;;;80.00;36.60;;;;;;;2.91;89.35;92734.53;5112448;28;20523;-51
2021/12/28 03:02:24;;;;;;;61.55;32.08;;;;;;;3.43;89.58;92782.41;5112789;28;20015;-51
2021/12/28 03:04:50;;;;;;;67.95;27.92;;;;;;;3.47;88.60;92777.38;5112536;28;20428;-52
2021/12/28 03:07:15;;;;;;;65.10;30.50;;;;;;;3.56;88.21;92780.47;5112279;28;20023;-51
2021/12/28 03:09:41;;;;;;;62.92;24.83;;;;;;;3.62;88.05;92783.09;5112700;28;20023;-50
2021/12/28 03:12:07;;;;;;;55.20;22.60;;;;;;;3.63;87.94;92777.13;5111956;28;20019;-50
2021/12/28 03:14:33;;;;;;;58.28;24.08;;;;;;;3.89;87.07;92783.91;5111890;28;20023;-52
2021/12/28 03:16:59;;;;;;;56.05;19.95;;;;;;;3.88;86.51;92785.19;5112226;28;20034;-50
2021/12/28 03:19:24;;;;;;;47.72;17.77;;;;;;;3.90;85.72;92794.31;5112317;28;20516;-51
2021/12/28 03:21:50;;;;;;;58.55;19.90;;;;;;;3.95;85.20;92790.03;5111881;28;20065;-49
2021/12/28 03:24:17;;;;;;;71.80;20.90;;;;;;;3.95;85.17;92793.50;5112275;28;20412;-52
2021/12/28 03:26:43;;;;;;;61.42;23.88;;;;;;;3.70;85.03;92787.44;5112043;28;20435;-50
2021/12/28 03:29:09;;;;;;;55.75;24.50;;;;;;;3.74;86.84;92795.34;5111961;28;20039;-50
2021/12/28 03:31:34;;;;;;;66.32;27.15;;;;;;;3.58;85.82;92790.84;5111576;28;20456;-51
2021/12/28 03:34:00;;;;;;;65.60;28.00;;;;;;;3.68;87.48;92792.69;5111735;28;20066;-54
2021/12/28 03:36:30;;;;;;;61.13;24.63;;;;;;;3.63;86.87;92790.78;5112048;28;20055;-50
2021/12/28 03:38:57;;;;;;;70.07;25.27;;;;;;;3.78;86.69;92793.03;5111545;28;20016;-52
2021/12/28 03:41:24;;;;;;;64.63;24.25;;;;;;;3.91;85.85;92787.59;5092597;28;20076;-52
2021/12/28 03:43:52;;;;;;;70.45;19.77;;;;;;;3.99;86.34;92788.47;5111534;28;20095;-53
2021/12/28 03:46:18;;;;;;;96.78;24.77;;;;;;;4.05;86.92;92788.38;5111390;28;20492;-51
2021/12/28 03:48:44;;;;;;;74.90;23.17;;;;;;;4.06;86.37;92789.84;5111552;28;20027;-53
2021/12/28 03:51:10;;;;;;;99.22;19.75;;;;;;;4.10;85.30;92791.00;5111529;28;20158;-50
2021/12/28 03:53:36;;;;;;;38.83;17.00;;;;;;;4.01;85.61;92791.41;5111535;28;20027;-54
2021/12/28 03:56:03;;;;;;;66.97;21.10;;;;;;;3.97;85.41;92798.44;5111757;28;20023;-51
2021/12/28 03:58:28;;;;;;;76.75;25.55;;;;;;;3.85;85.61;92786.97;5111081;28;20492;-53
2021/12/28 04:00:54;;;;;;;52.63;23.27;;;;;;;3.94;85.65;92800.22;5111628;28;20077;-53
2021/12/28 04:03:19;;;;;;;54.83;18.98;;;;;;;3.67;85.37;92752.25;5111276;28;20416;-54
2021/12/28 04:05:45;;;;;;;46.78;19.27;;;;;;;4.05;84.86;92789.09;5110156;28;20035;-52
2021/12/28 04:08:13;;;;;;;33.28;18.65;;;;;;;4.08;85.10;92801.72;5111351;28;20023;-53
2021/12/28 04:10:51;;;;;;;51.58;21.80;;;;;;;3.98;85.60;92797.19;5111190;28;20023;-56
2021/12/28 04:13:18;;;;;;;47.47;20.38;;;;;;;3.59;86.27;92800.53;5111092;28;20024;-55
2021/12/28 04:15:44;;;;;;;57.10;23.25;;;;;;;3.63;86.54;92793.53;5111298;28;20113;-56
2021/12/28 04:18:09;;;;;;;49.83;20.77;;;;;;;3.51;85.83;92758.72;5110989;28;20051;-56
2021/12/28 04:20:35;;;;;;;57.15;30.50;;;;;;;3.74;86.20;92795.34;5122746;27;20054;-56
2021/12/28 04:23:00;;;;;;;39.15;23.90;;;;;;;3.81;86.52;92800.91;5131840;27;20023;-56
2021/12/28 04:25:26;;;;;;;42.80;25.60;;;;;;;3.67;86.51;92787.75;5130884;27;20451;-55
2021/12/28 04:27:51;;;;;;;36.90;21.80;;;;;;;3.96;85.93;92796.97;5131430;27;20055;-56
2021/12/28 04:30:17;;;;;;;57.55;29.05;;;;;;;4.02;85.51;92792.16;5131344;27;20019;-56
2021/12/28 04:32:43;;;;;;;43.70;26.40;;;;;;;4.04;84.51;92793.09;5131482;27;20019;-55
2021/12/28 04:35:10;;;;;;;48.67;27.65;;;;;;;3.96;84.85;92797.72;5093978;28;20382;-56
2021/12/28 04:37:36;;;;;;;48.03;23.92;;;;;;;3.91;85.02;92778.66;5090776;28;20412;-56
2021/12/28 04:40:04;;;;;;;66.70;34.05;;;;;;;3.53;86.20;92783.50;5090478;28;20035;-55
2021/12/28 04:42:30;;;;;;;65.47;38.05;;;;;;;3.59;86.81;92793.09;5089234;28;20031;-54
2021/12/28 04:44:56;;;;;;;58.10;31.45;;;;;;;3.43;87.56;92796.03;5090392;28;20024;-56
2021/12/28 04:47:22;;;;;;;60.88;24.58;;;;;;;3.57;87.69;92797.59;5090536;28;20023;-59
2021/12/28 04:49:48;;;;;;;56.03;27.27;;;;;;;3.26;86.59;92741.00;5090627;28;20101;-59
2021/12/28 04:52:13;;;;;;;98.47;33.40;;;;;;;3.60;86.36;92794.53;5089945;28;20044;-59
2021/12/28 04:54:39;;;;;;;54.13;23.38;;;;;;;3.61;86.36;92793.31;5089916;28;20039;-59
2021/12/28 04:57:06;;;;;;;72.28;26.02;;;;;;;3.74;86.16;92795.34;5104055;28;20096;-59
2021/12/28 04:59:31;;;;;;;85.93;35.55;;;;;;;3.71;86.11;92799.09;5090439;28;20020;-59
2021/12/28 05:01:57;;;;;;;109.30;41.13;;;;;;;3.57;85.91;92762.09;5090373;28;20490;-59
2021/12/28 05:04:23;;;;;;;101.00;41.10;;;;;;;3.84;85.54;92804.59;5090379;28;20374;-59
2021/12/28 05:06:48;;;;;;;148.68;44.42;;;;;;;3.88;85.37;92804.31;5090042;28;20145;-60
2021/12/28 05:09:15;;;;;;;117.70;39.83;;;;;;;3.88;85.54;92801.56;5071885;28;20032;-60
2021/12/28 05:11:41;;;;;;;133.55;37.05;;;;;;;3.95;84.40;92795.47;5090074;28;20508;-59
2021/12/28 05:14:09;;;;;;;132.55;30.20;;;;;;;3.87;83.85;92792.66;5089879;28;20063;-58
2021/12/28 05:16:34;;;;;;;134.02;35.67;;;;;;;3.56;84.90;92796.84;5089980;28;20031;-58
2021/12/28 05:19:02;;;;;;;136.82;34.60;;;;;;;3.61;86.44;92801.50;5090313;28;20028;-53
2021/12/28 05:21:27;;;;;;;166.20;37.00;;;;;;;3.57;85.97;92787.38;5089876;28;20028;-52
2021/12/28 05:23:53;;;;;;;199.10;42.30;;;;;;;3.63;86.60;92801.72;5089936;28;20064;-54
2021/12/28 05:26:18;;;;;;;167.43;37.63;;;;;;;3.55;86.70;92800.09;5089879;28;20111;-51
2021/12/28 05:28:44;;;;;;;134.20;29.23;;;;;;;3.40;87.22;92816.19;5090139;28;20023;-50
2021/12/28 05:31:10;;;;;;;137.35;30.27;;;;;;;3.50;87.93;92809.84;5089683;28;20096;-52
2021/12/28 05:33:36;;;;;;;112.50;28.95;;;;;;;3.63;86.98;92812.63;5089738;28;20020;-50
2021/12/28 05:36:01;;;;;;;152.15;29.65;;;;;;;3.62;86.94;92805.69;5089719;28;20107;-52
2021/12/28 05:38:27;;;;;;;142.43;35.35;;;;;;;3.55;87.09;92811.03;5091309;28;20038;-49
2021/12/28 05:40:52;;;;;;;140.40;34.95;;;;;;;3.44;87.38;92794.81;5093981;28;20024;-50
2021/12/28 05:43:18;;;;;;;118.35;28.77;;;;;;;3.56;86.04;92809.75;5093508;28;20056;-49
2021/12/28 05:45:44;;;;;;;102.93;31.25;;;;;;;3.01;87.13;92816.72;5099171;28;20012;-50
2021/12/28 05:48:10;;;;;;;148.80;63.35;;;;;;;2.73;88.33;92816.31;5113909;28;20489;-51
2021/12/28 05:50:36;;;;;;;168.05;69.43;;;;;;;2.57;90.10;92809.81;5095578;28;20497;-51
2021/12/28 05:53:02;;;;;;;176.90;70.03;;;;;;;2.65;90.36;92809.97;5093223;28;20029;-49
2021/12/28 05:55:27;;;;;;;136.80;54.33;;;;;;;2.77;90.21;92809.31;5093171;28;20028;-50
2021/12/28 05:57:53;;;;;;;115.00;35.20;;;;;;;2.85;88.96;92810.22;5093067;28;20043;-52
2021/12/28 06:00:18;;;;;;;148.50;41.50;;;;;;;2.88;88.13;92816.66;5093319;28;20034;-50
2021/12/28 06:02:45;;;;;;;122.78;41.33;;;;;;;2.97;87.83;92819.72;5092221;28;20409;-53
2021/12/28 06:05:10;;;;;;;148.32;35.75;;;;;;;3.00;87.56;92824.16;5093332;28;20457;-49
2021/12/28 06:07:36;;;;;;;109.63;32.60;;;;;;;3.11;87.29;92819.81;5093225;28;20047;-51
2021/12/28 06:10:04;;;;;;;131.82;34.25;;;;;;;3.16;86.06;92824.47;5093152;28;20078;-53
2021/12/28 06:12:29;;;;;;;62.05;28.05;;;;;;;3.22;85.46;92823.13;5093041;28;20027;-51
2021/12/28 06:14:55;;;;;;;88.47;27.27;;;;;;;3.09;85.35;92823.06;5093346;28;20024;-51
2021/12/28 06:17:21;;;;;;;48.53;24.05;;;;;;;3.20;84.68;92824.91;5092769;28;20554;-55
2021/12/28 06:19:47;;;;;;;58.05;20.92;;;;;;;3.24;84.15;92831.53;5092858;28;20020;-54
2021/12/28 06:22:12;;;;;;;69.72;33.22;;;;;;;3.18;84.29;92824.69;5092380;28;20406;-58
2021/12/28 06:24:38;;;;;;;72.70;38.83;;;;;;;3.24;84.20;92828.81;5092677;28;20079;-52
2021/12/28 06:27:03;;;;;;;67.63;34.05;;;;;;;3.10;84.11;92810.88;5092455;28;20413;-51
2021/12/28 06:29:29;;;;;;;35.55;15.70;;;;;;;3.39;83.59;92833.81;5092572;28;20102;-52
2021/12/28 06:31:54;;;;;;;50.88;25.33;;;;;;;3.40;83.78;92832.56;5092115;28;20034;-56
2021/12/28 06:34:20;;;;;;;60.90;23.02;;;;;;;3.42;83.95;92830.06;5092348;28;20046;-51
2021/12/28 06:36:45;;;;;;;39.15;19.58;;;;;;;3.47;84.76;92827.25;5092458;28;20095;-50
2021/12/28 06:39:11;;;;;;;43.65;19.50;;;;;;;3.47;85.27;92831.97;5091968;28;20501;-52
2021/12/28 06:41:38;;;;;;;50.65;25.75;;;;;;;3.65;84.99;92834.69;5092329;28;20040;-50
2021/12/28 06:44:05;;;;;;;91.15;38.40;;;;;;;3.76;84.50;92837.25;5092099;28;20489;-47
2021/12/28 06:46:31;;;;;;;105.40;36.83;;;;;;;3.89;83.84;92838.53;5092538;28;20054;-52
2021/12/28 06:48:56;;;;;;;106.35;28.75;;;;;;;3.97;83.38;92834.69;5092104;28;20036;-48
2021/12/28 06:51:22;;;;;;;123.18;21.45;;;;;;;3.94;83.41;92841.19;5099192;28;20047;-47
2021/12/28 06:53:47;;;;;;;155.57;28.67;;;;;;;4.02;83.05;92833.13;5112349;28;20059;-46
2021/12/28 06:56:13;;;;;;;102.47;25.95;;;;;;;4.05;82.58;92841.00;5113018;28;20030;-55
2021/12/28 06:58:40;;;;;;;100.40;25.40;;;;;;;3.94;83.13;92835.72;5098331;28;20031;-55
2021/12/28 07:01:06;;;;;;;109.18;37.42;;;;;;;3.82;83.66;92837.16;5097167;28;20047;-57
2021/12/28 07:03:32;;;;;;;122.63;31.10;;;;;;;3.71;83.64;92837.31;5092240;28;20028;-57
2021/12/28 07:05:58;;;;;;;139.10;38.08;;;;;;;3.68;84.67;92827.44;5092102;28;20031;-56
2021/12/28 07:08:23;;;;;;;90.63;25.77;;;;;;;3.86;84.31;92837.56;5092314;28;20028;-55
2021/12/28 07:10:49;;;;;;;92.97;25.15;;;;;;;3.95;84.09;92836.44;5092284;28;20023;-53
2021/12/28 07:13:14;;;;;;;207.10;46.47;;;;;;;3.95;84.47;92837.19;5092292;28;20693;-53
2021/12/28 07:15:40;;;;;;;168.80;38.35;;;;;;;4.06;84.46;92845.22;5091921;28;20485;-51
2021/12/28 07:18:05;;;;;;;121.38;28.73;;;;;;;4.10;84.67;92840.16;5091782;28;20111;-49
2021/12/28 07:20:31;;;;;;;127.93;26.88;;;;;;;4.24;84.56;92841.69;5091953;28;20035;-49
2021/12/28 07:22:57;;;;;;;147.50;20.45;;;;;;;4.35;84.07;92846.22;5092043;28;20034;-52
2021/12/28 07:25:24;;;;;;;90.90;16.92;;;;;;;4.40;83.70;92848.84;5092031;28;20547;-51
2021/12/28 07:27:50;;;;;;;117.10;12.68;;;;;;;4.41;83.52;92844.88;5091995;28;20386;-50
2021/12/28 07:30:16;;;;;;;106.32;14.60;;;;;;;4.59;83.45;92843.31;5091660;28;20034;-52
2021/12/28 07:32:41;;;;;;;70.43;11.00;;;;;;;4.74;82.97;92851.00;5091987;28;20024;-49
2021/12/28 07:35:09;;;;;;;61.28;14.75;;;;;;;4.83;81.98;92856.06;5091295;28;20020;-52
2021/12/28 07:37:34;;;;;;;105.90;18.90;;;;;;;4.75;80.59;92828.59;5091758;28;20527;-50
2021/12/28 07:40:00;;;;;;;72.22;20.83;;;;;;;5.02;80.72;92851.94;5090192;28;20051;-54
2021/12/28 07:42:26;;;;;;;77.03;21.83;;;;;;;5.16;80.66;92856.13;5091342;28;20111;-53
2021/12/28 07:44:51;;;;;;;91.53;21.85;;;;;;;5.10;80.42;92808.25;5091472;28;20053;-50
2021/12/28 07:47:17;;;;;;;108.13;26.23;;;;;;;5.58;80.17;92856.25;5109897;28;20068;-53
2021/12/28 07:49:43;;;;;;;96.78;22.92;;;;;;;5.70;79.45;92852.75;5111853;28;20034;-50
2021/12/28 07:52:08;;;;;;;92.32;25.50;;;;;;;5.81;78.21;92857.25;5091175;28;20414;-50
2021/12/28 07:54:34;;;;;;;99.00;23.40;;;;;;;5.92;77.58;92859.75;5090942;28;20027;-49
2021/12/28 07:57:00;;;;;;;106.60;26.45;;;;;;;6.11;77.71;92857.56;5091068;28;20031;-52
2021/12/28 07:59:26;;;;;;;78.57;24.60;;;;;;;6.18;76.32;92862.38;5090970;28;20524;-53
2021/12/28 08:01:52;;;;;;;92.95;23.67;;;;;;;6.18;75.20;92856.91;5105074;28;20043;-49
2021/12/28 08:04:18;;;;;;;32.08;6.40;;;;;;;5.88;74.59;92864.84;5111238;28;20032;-49
2021/12/28 08:06:44;;;;;;;7.38;3.78;;;;;;;5.82;74.46;92856.72;5074058;28;20036;-51
2021/12/28 08:09:11;;;;;;;26.75;9.50;;;;;;;5.67;75.35;92853.09;5079519;28;20044;-50
2021/12/28 08:11:37;;;;;;;29.40;14.65;;;;;;;5.99;75.90;92870.81;5089563;28;20032;-51
2021/12/28 08:14:04;;;;;;;33.03;8.40;;;;;;;6.10;75.33;92876.03;5089497;28;20080;-48
2021/12/28 08:16:30;;;;;;;23.00;6.20;;;;;;;6.17;74.84;92862.94;5086691;28;20028;-50
2021/12/28 08:18:55;;;;;;;12.80;5.28;;;;;;;6.06;74.21;92872.16;5089233;28;20024;-50
2021/12/28 08:21:21;;;;;;;71.68;33.25;;;;;;;5.87;74.45;92871.56;5090152;28;20031;-47
2021/12/28 08:23:47;;;;;;;40.95;14.05;;;;;;;5.64;75.44;92846.66;5090342;28;20028;-49
2021/12/28 08:26:16;;;;;;;28.80;10.82;;;;;;;5.88;75.76;92870.31;5089456;28;20023;-50
2021/12/28 08:28:41;;;;;;;26.98;11.82;;;;;;;6.00;76.46;92869.53;5090493;28;20085;-47
2021/12/28 08:31:07;;;;;;;34.17;10.32;;;;;;;6.03;76.57;92873.94;5089306;28;20028;-51
2021/12/28 08:33:32;;;;;;;31.55;8.35;;;;;;;6.04;75.87;92858.25;5091403;28;20103;-49
2021/12/28 08:35:58;;;;;;;30.63;12.93;;;;;;;5.91;76.60;92869.25;5093342;28;20089;-46
2021/12/28 08:38:23;;;;;;;24.20;8.10;;;;;;;5.92;76.93;92871.47;5087895;28;20478;-48
2021/12/28 08:40:49;;;;;;;26.33;7.45;;;;;;;6.36;75.91;92864.19;5087594;28;20560;-49
2021/12/28 08:43:14;;;;;;;21.23;5.68;;;;;;;6.89;75.03;92867.34;5087685;28;20028;-47
2021/12/28 08:45:41;;;;;;;40.85;8.77;;;;;;;7.61;74.00;92857.84;5087863;28;20160;-48
2021/12/28 08:48:10;;;;;;;27.45;5.93;;;;;;;8.21;71.00;92862.03;5088271;28;20472;-47
2021/12/28 08:50:36;;;;;;;36.00;10.07;;;;;;;8.47;68.40;92852.75;5089379;28;20039;-43
2021/12/28 08:53:02;;;;;;;34.22;15.50;;;;;;;8.82;68.28;92854.56;5108482;28;20035;-47
2021/12/28 08:55:28;;;;;;;31.92;14.38;;;;;;;8.93;67.32;92852.19;5108100;28;20039;-47
2021/12/28 08:57:54;;;;;;;30.77;14.45;;;;;;;8.78;67.04;92808.16;5100082;28;20085;-48
2021/12/28 09:00:25;;;;;;;51.35;24.90;;;;;;;9.02;66.53;92843.38;5087940;28;20024;-48
2021/12/28 09:02:52;;;;;;;66.82;24.80;;;;;;;9.00;66.50;92831.44;5086162;28;20028;-46
2021/12/28 09:05:18;;;;;;;48.60;23.70;;;;;;;9.22;66.44;92827.16;5086578;28;20107;-49
2021/12/28 09:07:44;;;;;;;80.72;31.63;;;;;;;9.52;66.13;92832.56;5086251;28;20505;-49
2021/12/28 09:10:10;;;;;;;88.03;41.60;;;;;;;9.93;65.17;92821.00;5086444;28;20031;-49
2021/12/28 09:12:36;;;;;;;56.53;33.95;;;;;;;10.02;65.50;92817.66;5088584;28;20032;-47
2021/12/28 09:15:03;;;;;;;48.33;30.85;;;;;;;10.75;64.16;92824.50;5091048;28;20024;-48
2021/12/28 09:17:29;;;;;;;44.85;29.10;;;;;;;11.11;63.67;92805.38;5091007;28;20035;-47
2021/12/28 09:19:55;;;;;;;37.28;25.33;;;;;;;11.74;61.40;92815.97;5090600;28;20024;-49
2021/12/28 09:22:20;;;;;;;26.27;17.80;;;;;;;12.46;59.85;92818.13;5090928;28;20068;-48
2021/12/28 09:24:46;;;;;;;16.40;12.40;;;;;;;13.07;57.98;92818.66;5090800;28;20071;-48
2021/12/28 09:27:11;;;;;;;11.05;8.68;;;;;;;14.15;55.95;92814.00;5090596;28;20491;-48
2021/12/28 09:29:42;;;;;;;16.63;11.77;;;;;;;15.00;52.56;92810.22;5090491;28;20097;-48
2021/12/28 09:32:08;;;;;;;17.05;11.25;;;;;;;15.64;51.40;92813.06;5090601;28;20028;-48
2021/12/28 09:34:33;;;;;;;10.70;8.23;;;;;;;16.03;49.10;92808.63;5092985;28;20103;-49
2021/12/28 09:36:59;;;;;;;15.52;13.02;;;;;;;16.32;49.64;92806.31;5093680;28;20027;-48
2021/12/28 09:39:27;;;;;;;15.52;12.63;;;;;;;16.71;48.20;92806.66;5093743;28;20050;-48
2021/12/28 09:41:56;;;;;;;52.57;38.57;;;;;;;17.18;47.16;92808.09;5093138;28;20026;-50
2021/12/28 09:44:22;;;;;;;38.30;27.67;;;;;;;17.20;46.47;92796.34;5092820;28;20028;-50
2021/12/28 09:46:48;;;;;;;36.15;27.38;;;;;;;17.57;46.94;92799.94;5093221;28;20433;-48
2021/12/28 09:49:14;;;;;;;25.75;17.55;;;;;;;17.47;45.42;92782.59;5093527;28;20032;-50
2021/12/28 09:51:39;;;;;;;19.10;13.15;;;;;;;17.15;46.82;92797.44;5103691;28;20133;-47
2021/12/28 09:54:05;;;;;;;13.38;10.45;;;;;;;16.45;48.63;92799.44;5095957;28;20028;-47
2021/12/28 09:56:31;;;;;;;17.25;10.27;;;;;;;16.64;49.54;92785.31;5095978;28;20026;-48
2021/12/28 09:58:58;;;;;;;5.55;4.45;;;;;;;16.42;49.92;92798.56;5113297;28;20095;-50
2021/12/28 10:01:23;;;;;;;4.57;4.10;;;;;;;16.00;50.21;92795.19;5113981;28;20491;-48
2021/12/28 10:03:49;;;;;;;7.70;4.45;;;;;;;15.66;51.13;92777.75;5113774;28;20107;-47
2021/12/28 10:06:32;;;;;;;8.07;4.00;;;;;;;14.60;53.22;92795.63;5113978;28;20027;-48
2021/12/28 10:09:15;;;;;;;10.23;5.35;;;;;;;14.32;55.46;92799.97;5113652;28;20043;-48
2021/12/28 10:11:53;;;;;;;7.57;4.18;;;;;;;14.58;54.93;92762.16;5113557;28;20156;-47
2021/12/28 10:14:27;;;;;;;7.77;5.03;;;;;;;14.76;54.90;92789.13;5113423;28;20028;-48
2021/12/28 10:17:02;;;;;;;4.65;3.90;;;;;;;14.58;55.13;92785.09;5113541;28;20020;-47
2021/12/28 10:19:40;;;;;;;8.23;5.82;;;;;;;14.35;55.79;92782.13;5113550;28;20458;-48
2021/12/28 10:22:42;;;;;;;7.80;5.85;;;;;;;14.43;56.37;92783.41;5113547;28;20177;-49
2021/12/28 10:25:14;;;;;;;4.50;3.85;;;;;;;14.64;54.94;92768.84;5059360;28;20416;-48
2021/12/28 10:27:46;;;;;;;5.32;4.20;;;;;;;15.48;54.38;92768.25;5113588;28;20102;-49
2021/12/28 10:30:21;;;;;;;11.15;8.35;;;;;;;16.42;51.17;92772.75;5113454;28;20092;-50
2021/12/28 10:32:52;;;;;;;8.55;6.93;;;;;;;16.77;48.95;92764.47;5113154;28;20485;-49
2021/12/28 10:35:24;;;;;;;5.57;4.95;;;;;;;17.07;50.33;92772.59;5113203;28;20034;-48
2021/12/28 10:37:52;;;;;;;8.35;6.82;;;;;;;17.63;49.50;92768.88;5113093;28;20091;-48
2021/12/28 10:40:25;;;;;;;9.30;8.03;;;;;;;18.01;47.65;92768.97;5113326;28;20606;-48
2021/12/28 10:42:56;;;;;;;23.73;21.40;;;;;;;18.44;46.65;92772.06;5113253;28;20405;-47
2021/12/28 10:45:25;;;;;;;7.20;4.90;;;;;;;18.95;46.22;92767.06;5113175;28;20455;-49
2021/12/28 10:47:52;;;;;;;5.43;4.72;;;;;;;18.81;45.78;92763.53;5112980;28;20023;-46
2021/12/28 10:50:28;;;;;;;3.88;3.20;;;;;;;18.50;45.07;92740.88;5113076;28;20038;-47
2021/12/28 10:53:06;;;;;;;5.20;3.88;;;;;;;18.96;45.48;92771.31;5092501;28;20043;-48
2021/12/28 10:55:33;;;;;;;7.63;6.18;;;;;;;18.91;45.81;92770.38;5092235;28;20020;-49
2021/12/28 10:57:58;;;;;;;7.82;5.82;;;;;;;19.29;44.65;92762.53;5092045;28;20055;-48
2021/12/28 11:00:35;;;;;;;8.20;5.65;;;;;;;19.64;43.79;92768.53;5091270;28;20067;-50
2021/12/28 11:03:26;;;;;;;3.17;2.60;;;;;;;18.24;43.64;92775.78;5092378;28;20035;-47
2021/12/28 11:05:54;;;;;;;8.75;6.22;;;;;;;17.74;46.81;92776.47;5092200;28;20093;-47
2021/12/28 11:08:21;;;;;;;3.85;3.42;;;;;;;17.50;46.84;92778.59;5092349;28;20102;-46
2021/12/28 11:10:56;;;;;;;2.45;2.10;;;;;;;16.80;46.66;92775.16;5073959;28;20111;-48
2021/12/28 11:13:25;;;;;;;4.88;3.17;;;;;;;16.31;49.40;92763.06;5092233;28;20024;-48
2021/12/28 11:15:50;;;;;;;;;;;;;;;16.03;50.27;92763.34;5074784;28;20032;-47
2021/12/28 11:18:20;;;;;;;7.07;2.80;;;;;;;15.98;49.72;92751.25;5091894;28;20324;-48
2021/12/28 11:20:47;;;;;;;3.00;1.77;;;;;;;15.78;50.12;92763.88;5092249;28;20031;-48
2021/12/28 11:23:17;;;;;;;3.15;2.85;;;;;;;15.54;51.84;92760.28;5091670;28;20028;-63
2021/12/28 11:25:42;;;;;;;3.25;2.58;;;;;;;15.32;53.92;92761.59;5091970;28;20020;-50